Flight Track Log - Related Links

Times and Time Zones

All times are in EST time to prevent confusion due to time zone crossing. See the JBU56 flight status page for this flight to view local times or setup timezone preferences in your user account.

Time Position Orientation Groundspeed Altitude Reporting Facility
EST Latitude Longitude Course Direction KTS MPH feet Rate Location/Type
Sat 09:56:47 AM 38.9667 -77.5000 52° Northeast 177 204 2,600  Level Potomac TRACON
Sat 09:57:47 AM 39.0167 -77.5000 360° North 207 238 5,900 3,273 Climbing Potomac TRACON
Sat 09:58:48 AM 39.0833 -77.4833 11° North 225 259 9,200 2,139 Climbing Potomac TRACON
Sat 09:59:42 AM 39.1333 -77.4500 27° Northeast 278 320 10,000 444 Climbing Potomac TRACON
Sat 10:00:36 AM 39.1500 -77.3333 80° East 384 442 10,000 895 Level Potomac TRACON
Sat 10:01:36 AM 39.1167 -77.2000 108° East 407 468 11,700 2,019 Climbing Potomac TRACON
Sat 10:02:00 AM 39.3282 -76.8029 52° Northeast  Level Estimated
Sat 10:04:04 AM 39.1067 -76.8594 92° East 443 510 17,000  Level Washington Center
Sat 10:05:04 AM 39.1189 -76.6886 85° East 460 529 18,500 992 Climbing Washington Center
Sat 10:06:05 AM 39.1311 -76.4772 86° East 480 552 19,000 252 Climbing Washington Center
Sat 10:07:03 AM 39.1447 -76.2956 84° East 501 577 19,000 50 Level Washington Center
Sat 10:08:04 AM 39.1622 -76.1350 82° East 501 577 19,100 942 Climbing Washington Center
Sat 10:09:04 AM 39.1836 -75.9558 81° East 506 582 20,900 1,700 Climbing Washington Center
Sat 10:10:04 AM 39.2550 -75.7981 60° Northeast 500 575 22,500 1,388 Climbing Washington Center
Sat 10:11:05 AM 39.3572 -75.6667 45° Northeast 489 563 23,700 1,361 Climbing Washington Center
Sat 10:12:03 AM 39.4614 -75.5325 45° Northeast 505 581 25,200 1,831 Climbing Washington Center
Sat 10:13:03 AM 39.5656 -75.3978 45° Northeast 516 594 27,300 1,399 Climbing Washington Center
Sat 10:15:16 AM 39.7928 -75.0828 47° Northeast 520 598 29,700 1,150 Climbing New York Center
Sat 10:16:16 AM 39.8961 -74.9350 48° Northeast 533 613 31,000 650 Climbing New York Center
Sat 10:17:16 AM 40.0125 -74.7683 48° Northeast 551 634 31,000  Level New York Center
Sat 10:18:16 AM 40.1067 -74.6328 48° Northeast 551 634 31,000  Level New York Center
Sat 10:19:16 AM 40.2222 -74.4706 47° Northeast 551 634 31,000  Level New York Center
Sat 10:20:16 AM 40.3231 -74.3100 50° Northeast 556 640 31,000  Level New York Center
Sat 10:21:16 AM 40.4236 -74.1517 50° Northeast 562 647 31,000  Level New York Center
Sat 10:22:16 AM 40.5219 -73.9900 51° Northeast 562 647 31,000 -606 Level New York Center
Sat 10:24:34 AM 40.7447 -73.6314 51° Northeast 560 644 29,000 -1,212 Descending Boston Center
Sat 10:25:34 AM 40.8461 -73.4683 51° Northeast 555 639 27,000 -984 Descending Boston Center
Sat 10:26:36 AM 40.9414 -73.3264 48° Northeast 542 624 27,000 -341 Level Boston Center
Sat 10:27:37 AM 41.0406 -73.1775 49° Northeast 542 624 26,300 -1,279 Descending Boston Center
Sat 10:28:38 AM 41.1397 -73.0283 49° Northeast 542 624 24,400 -1,587 Descending Boston Center
Sat 10:29:38 AM 41.2311 -72.8756 51° Northeast 534 615 23,100 -694 Descending Boston Center
Sat 10:30:39 AM 41.3033 -72.6725 65° Northeast 549 632 23,000 -48 Descending Boston Center
Sat 10:31:42 AM 41.3678 -72.4864 65° Northeast 551 634 23,000  Level Boston Center
Sat 10:32:43 AM 41.4314 -72.3003 65° Northeast 551 634 23,000 -787 Level Boston Center
Sat 10:33:44 AM 41.4939 -72.1144 66° East 550 633 21,400 -1,736 Descending Boston Center
Sat 10:34:44 AM 41.5561 -71.9317 65° Northeast 524 603 19,500 -1,850 Descending Boston Center
Sat 10:35:44 AM 41.6167 -71.7544 65° Northeast 493 567 17,700 -1,694 Descending Boston Center
Sat 10:36:48 AM 41.6783 -71.6006 62° Northeast 476 548 16,000 -1,632 Descending Boston Center
Sat 10:37:49 AM 41.7514 -71.4717 53° Northeast 453 521 14,300 -1,426 Descending Boston Center
Sat 10:38:50 AM 41.8289 -71.3347 53° Northeast 428 493 13,100 -1,869 Descending Boston Center
Sat 10:39:51 AM 41.8964 -71.2225 51° Northeast 390 449 10,500 -1,525 Descending Boston Center
Sat 10:40:52 AM 41.9583 -71.1231 50° Northeast 349 402 10,000 -1,062 Descending Boston Center
Sat 10:41:44 AM 42.0167 -71.0500 43° Northeast 285 328 8,500 -1,661 Descending KA90
Sat 10:42:44 AM 42.0833 -70.9833 37° Northeast 276 318 6,900 -1,400 Descending KA90
Sat 10:43:44 AM 42.1333 -70.9333 37° Northeast 222 255 5,700 -1,450 Descending KA90
Sat 10:44:44 AM 42.1833 -70.9000 26° Northeast 222 255 4,000 -1,350 Descending KA90
Sat 10:45:44 AM 42.2333 -70.8500 37° Northeast 203 234 3,000 -714 Descending KA90
Sat 10:46:50 AM 42.2667 -70.8833 324° Northwest 159 183 2,500 -619 Descending KA90
Sat 10:47:50 AM 42.3000 -70.9167 324° Northwest 159 183 1,700 -842 Descending KA90
Sat 10:48:44 AM 42.3333 -70.9500 324° Northwest 122 140 900 -789 Descending KA90
Sat 10:49:44 AM 42.3500 -70.9833 304° West 125 144 200 -700 Descending KA90

Login

Don't have an account? Register now (free) for customized features, flight alerts, and more!